Time,TemperatureF,DewpointF,PressureIn,WindDirection,WindDirectionDegrees,WindSpeedMPH,WindSpeedGustMPH,Humidity,HourlyPrecipIn,Conditions,Clouds,dailyrainin,SoftwareType,DateUTC
2013-02-11 00:01:00,29.0,29.0,-100.00,WNW,298,0.0,0.0,99,0.00,,,0.00,,2013-02-11 08:01:00,
2013-02-11 00:11:00,29.0,29.0,-100.00,WNW,298,0.0,0.0,99,0.00,,,0.00,,2013-02-11 08:11:00,
2013-02-11 00:21:00,29.0,29.0,-100.00,WNW,298,0.0,0.0,99,0.00,,,0.00,,2013-02-11 08:21:00,
2013-02-11 00:52:00,27.0,27.0,-100.00,SE,143,0.0,0.0,100,0.00,,,0.00,,2013-02-11 08:52:00,
2013-02-11 01:01:00,27.0,27.0,-100.00,SE,143,0.0,0.0,100,0.00,,,0.00,,2013-02-11 09:01:00,
2013-02-11 01:12:00,27.0,27.0,-100.00,SE,143,0.0,0.0,100,0.00,,,0.00,,2013-02-11 09:12:00,
2013-02-11 01:21:00,27.0,27.0,-100.00,SE,143,0.0,0.0,100,0.00,,,0.00,,2013-02-11 09:21:00,
2013-02-11 01:52:00,24.0,24.0,-100.00,East,84,0.0,0.0,100,0.00,,,0.00,,2013-02-11 09:52:00,
2013-02-11 02:01:00,24.0,24.0,-100.00,East,84,0.0,0.0,100,0.00,,,0.00,,2013-02-11 10:01:00,
2013-02-11 02:11:00,24.0,24.0,-100.00,East,84,0.0,0.0,100,0.00,,,0.00,,2013-02-11 10:11:00,
2013-02-11 02:21:00,24.0,24.0,-100.00,East,84,0.0,0.0,100,0.00,,,0.00,,2013-02-11 10:21:00,
2013-02-11 02:52:00,24.0,24.0,-100.00,ENE,72,0.0,3.0,100,0.00,,,0.00,,2013-02-11 10:52:00,
2013-02-11 03:01:00,24.0,24.0,-100.00,ENE,72,0.0,3.0,100,0.00,,,0.00,,2013-02-11 11:01:00,
2013-02-11 03:11:00,24.0,24.0,-100.00,ENE,72,0.0,3.0,100,0.00,,,0.00,,2013-02-11 11:11:00,
2013-02-11 03:22:00,24.0,24.0,-100.00,ENE,72,0.0,3.0,100,0.00,,,0.00,,2013-02-11 11:22:00,
2013-02-11 03:52:00,22.0,22.0,-100.00,SSE,161,0.0,0.0,100,0.00,,,0.00,,2013-02-11 11:52:00,
2013-02-11 04:03:00,22.0,22.0,-100.00,SSE,161,0.0,0.0,100,0.00,,,0.00,,2013-02-11 12:03:00,
2013-02-11 04:12:00,22.0,22.0,-100.00,SSE,161,0.0,0.0,100,0.00,,,0.00,,2013-02-11 12:12:00,
2013-02-11 04:22:00,22.0,22.0,-100.00,SSE,161,0.0,0.0,100,0.00,,,0.00,,2013-02-11 12:22:00,
2013-02-11 04:52:00,21.0,21.0,-100.00,ESE,115,0.0,0.0,99,0.00,,,-99.99,,2013-02-11 12:52:00,
2013-02-11 05:01:00,21.0,21.0,-100.00,ESE,115,0.0,0.0,99,0.00,,,-99.99,,2013-02-11 13:01:00,
2013-02-11 05:11:00,21.0,21.0,-100.00,ESE,115,0.0,0.0,99,0.00,,,-99.99,,2013-02-11 13:11:00,
2013-02-11 05:21:00,21.0,21.0,-100.00,ESE,115,0.0,0.0,99,0.00,,,-99.99,,2013-02-11 13:21:00,
2013-02-11 05:52:00,24.0,22.0,-100.00,WSW,249,0.0,3.0,93,0.00,,,-99.99,,2013-02-11 13:52:00,
2013-02-11 06:01:00,24.0,22.0,-100.00,WSW,249,0.0,3.0,93,0.00,,,-99.99,,2013-02-11 14:01:00,
2013-02-11 06:11:00,24.0,22.0,-100.00,WSW,249,0.0,3.0,93,0.00,,,-99.99,,2013-02-11 14:11:00,
2013-02-11 06:21:00,24.0,22.0,-100.00,WSW,249,0.0,3.0,93,0.00,,,-99.99,,2013-02-11 14:21:00,
2013-02-11 06:53:00,22.0,22.0,-100.00,South,188,0.0,6.0,98,0.00,,,0.00,,2013-02-11 14:53:00,
2013-02-11 07:01:00,22.0,22.0,-100.00,South,188,0.0,6.0,98,0.00,,,0.00,,2013-02-11 15:01:00,
2013-02-11 07:11:00,22.0,22.0,-100.00,South,188,0.0,6.0,98,0.00,,,0.00,,2013-02-11 15:11:00,
2013-02-11 07:22:00,22.0,22.0,-100.00,South,188,0.0,6.0,98,0.00,,,0.00,,2013-02-11 15:22:00,
2013-02-11 07:52:00,22.0,22.0,-100.00,ENE,59,0.0,3.0,99,0.00,,,0.00,,2013-02-11 15:52:00,
2013-02-11 08:01:00,22.0,22.0,-100.00,ENE,59,0.0,3.0,99,0.00,,,0.00,,2013-02-11 16:01:00,
2013-02-11 08:11:00,22.0,22.0,-100.00,ENE,59,0.0,3.0,99,0.00,,,0.00,,2013-02-11 16:11:00,
2013-02-11 08:21:00,22.0,22.0,-100.00,ENE,59,0.0,3.0,99,0.00,,,0.00,,2013-02-11 16:21:00,
2013-02-11 08:52:00,34.0,28.0,-100.00,NNE,19,0.0,3.0,77,0.00,,,0.00,,2013-02-11 16:52:00,
2013-02-11 09:01:00,34.0,28.0,-100.00,NNE,19,0.0,3.0,77,0.00,,,0.00,,2013-02-11 17:01:00,
2013-02-11 09:11:00,34.0,28.0,-100.00,NNE,19,0.0,3.0,77,0.00,,,0.00,,2013-02-11 17:11:00,
2013-02-11 09:21:00,34.0,28.0,-100.00,NNE,19,0.0,3.0,77,0.00,,,0.00,,2013-02-11 17:21:00,
2013-02-11 09:53:00,43.0,22.0,-100.00,SW,215,0.0,2.0,43,0.00,,,0.00,,2013-02-11 17:53:00,
2013-02-11 10:01:00,43.0,22.0,-100.00,SW,215,0.0,2.0,43,0.00,,,0.00,,2013-02-11 18:01:00,
2013-02-11 10:11:00,43.0,22.0,-100.00,SW,215,0.0,2.0,43,0.00,,,0.00,,2013-02-11 18:11:00,
2013-02-11 10:21:00,43.0,22.0,-100.00,SW,215,0.0,2.0,43,0.00,,,0.00,,2013-02-11 18:21:00,
2013-02-11 10:53:00,39.0,18.0,-100.00,NE,48,8.0,13.0,43,0.00,,,0.00,,2013-02-11 18:53:00,
2013-02-11 11:02:00,39.0,18.0,-100.00,NE,48,8.0,13.0,43,0.00,,,0.00,,2013-02-11 19:02:00,
2013-02-11 11:11:00,39.0,18.0,-100.00,NE,48,8.0,13.0,43,0.00,,,0.00,,2013-02-11 19:11:00,
2013-02-11 11:21:00,39.0,18.0,-100.00,NE,48,8.0,13.0,43,0.00,,,0.00,,2013-02-11 19:21:00,
2013-02-11 12:52:00,42.0,18.0,-100.00,SE,133,3.0,16.0,38,-99.99,,,0.00,,2013-02-11 20:52:00,
2013-02-11 13:02:00,42.0,18.0,-100.00,SE,133,3.0,16.0,38,-99.99,,,0.00,,2013-02-11 21:02:00,
2013-02-11 13:11:00,42.0,18.0,-100.00,SE,133,3.0,16.0,38,-99.99,,,0.00,,2013-02-11 21:11:00,
2013-02-11 13:21:00,42.0,18.0,-100.00,SE,133,3.0,16.0,38,-99.99,,,0.00,,2013-02-11 21:21:00,
2013-02-11 13:52:00,40.0,13.0,-100.00,NE,42,7.0,17.0,32,0.00,,,0.00,,2013-02-11 21:52:00,
2013-02-11 14:01:00,40.0,13.0,-100.00,NE,42,7.0,17.0,32,0.00,,,0.00,,2013-02-11 22:01:00,
2013-02-11 14:11:00,40.0,13.0,-100.00,NE,42,7.0,17.0,32,0.00,,,0.00,,2013-02-11 22:11:00,
2013-02-11 14:21:00,40.0,13.0,-100.00,NE,42,7.0,17.0,32,0.00,,,0.00,,2013-02-11 22:21:00,
2013-02-11 14:52:00,39.0,10.0,-100.00,NNE,31,5.0,18.0,30,0.00,,,0.00,,2013-02-11 22:52:00,
2013-02-11 15:01:00,39.0,10.0,-100.00,NNE,31,5.0,18.0,30,0.00,,,0.00,,2013-02-11 23:01:00,
2013-02-11 15:11:00,39.0,10.0,-100.00,NNE,31,5.0,18.0,30,0.00,,,0.00,,2013-02-11 23:11:00,
2013-02-11 15:21:00,39.0,10.0,-100.00,NNE,31,5.0,18.0,30,0.00,,,0.00,,2013-02-11 23:21:00,
2013-02-11 15:52:00,41.0,10.0,-100.00,NE,44,5.0,13.0,27,0.00,,,0.00,,2013-02-11 23:52:00,
2013-02-11 16:01:00,41.0,10.0,-100.00,NE,44,5.0,13.0,27,0.00,,,0.00,,2013-02-12 00:01:00,
2013-02-11 16:11:00,41.0,10.0,-100.00,NE,44,5.0,13.0,27,0.00,,,0.00,,2013-02-12 00:11:00,
2013-02-11 16:21:00,41.0,10.0,-100.00,NE,44,5.0,13.0,27,0.00,,,0.00,,2013-02-12 00:21:00,
2013-02-11 16:52:00,37.0,6.0,-100.00,NE,43,4.0,16.0,27,0.00,,,0.00,,2013-02-12 00:52:00,
2013-02-11 17:01:00,37.0,6.0,-100.00,NE,43,4.0,16.0,27,0.00,,,0.00,,2013-02-12 01:01:00,
2013-02-11 17:11:00,37.0,6.0,-100.00,NE,43,4.0,16.0,27,0.00,,,0.00,,2013-02-12 01:11:00,
2013-02-11 17:21:00,37.0,6.0,-100.00,NE,43,4.0,16.0,27,0.00,,,0.00,,2013-02-12 01:21:00,
2013-02-11 17:52:00,32.0,9.0,-100.00,NNE,19,0.0,15.0,37,0.00,,,0.00,,2013-02-12 01:52:00,
2013-02-11 18:01:00,32.0,9.0,-100.00,NNE,19,0.0,15.0,37,0.00,,,0.00,,2013-02-12 02:01:00,
2013-02-11 18:11:00,32.0,9.0,-100.00,NNE,19,0.0,15.0,37,0.00,,,0.00,,2013-02-12 02:11:00,
2013-02-11 18:21:00,32.0,9.0,-100.00,NNE,19,0.0,15.0,37,0.00,,,0.00,,2013-02-12 02:21:00,
2013-02-11 18:52:00,28.0,17.0,-100.00,NW,320,0.0,9.0,63,0.00,,,0.00,,2013-02-12 02:52:00,
2013-02-11 19:02:00,28.0,17.0,-100.00,NW,320,0.0,9.0,63,0.00,,,0.00,,2013-02-12 03:02:00,
2013-02-11 19:11:00,28.0,17.0,-100.00,NW,320,0.0,9.0,63,0.00,,,0.00,,2013-02-12 03:11:00,
2013-02-11 19:52:00,30.0,12.0,-100.00,NE,47,4.0,8.0,46,0.00,,,0.00,,2013-02-12 03:52:00,
2013-02-11 20:01:00,30.0,12.0,-100.00,NE,47,4.0,8.0,46,0.00,,,0.00,,2013-02-12 04:01:00,
2013-02-11 20:11:00,30.0,12.0,-100.00,NE,47,4.0,8.0,46,0.00,,,0.00,,2013-02-12 04:11:00,
2013-02-11 20:21:00,30.0,12.0,-100.00,NE,47,4.0,8.0,46,0.00,,,0.00,,2013-02-12 04:21:00,
2013-02-11 20:52:00,27.0,13.0,-100.00,North,352,0.0,9.0,54,0.00,,,0.00,,2013-02-12 04:52:00,
2013-02-11 21:01:00,27.0,13.0,-100.00,North,352,0.0,9.0,54,0.00,,,0.00,,2013-02-12 05:01:00,
2013-02-11 21:11:00,27.0,13.0,-100.00,North,352,0.0,9.0,54,0.00,,,0.00,,2013-02-12 05:11:00,
2013-02-11 21:21:00,27.0,13.0,-100.00,North,352,0.0,9.0,54,0.00,,,0.00,,2013-02-12 05:21:00,
2013-02-11 21:52:00,34.0,4.0,-100.00,NNE,33,4.0,6.0,28,0.00,,,0.00,,2013-02-12 05:52:00,
2013-02-11 22:01:00,34.0,4.0,-100.00,NNE,33,4.0,6.0,28,0.00,,,0.00,,2013-02-12 06:01:00,
2013-02-11 22:12:00,34.0,4.0,-100.00,NNE,33,4.0,6.0,28,0.00,,,0.00,,2013-02-12 06:12:00,
2013-02-11 22:21:00,34.0,4.0,-100.00,NNE,33,4.0,6.0,28,0.00,,,0.00,,2013-02-12 06:21:00,
2013-02-11 22:52:00,34.0,4.0,-100.00,NE,46,4.0,14.0,28,0.00,,,0.00,,2013-02-12 06:52:00,
2013-02-11 23:01:00,34.0,4.0,-100.00,NE,46,4.0,14.0,28,0.00,,,0.00,,2013-02-12 07:01:00,
2013-02-11 23:11:00,34.0,4.0,-100.00,NE,46,4.0,14.0,28,0.00,,,0.00,,2013-02-12 07:11:00,
2013-02-11 23:21:00,34.0,4.0,-100.00,NE,46,4.0,14.0,28,0.00,,,0.00,,2013-02-12 07:21:00,
2013-02-11 23:52:00,33.0,6.0,-100.00,NNE,30,3.0,13.0,32,0.00,,,0.00,,2013-02-12 07:52:00,